createdAt,value
2022-11-05T00:00:16.918Z,95048.13
2022-11-05T00:03:02.152Z,95053.75
2022-11-05T00:05:47.618Z,95062.97
2022-11-05T00:08:33.650Z,95060.63
2022-11-05T00:11:02.994Z,95064.47
2022-11-05T00:13:48.561Z,95069.84
2022-11-05T00:16:36.493Z,95082.19
2022-11-05T00:19:10.271Z,95089.38
2022-11-05T00:21:57.376Z,95090.34
2022-11-05T00:24:43.313Z,95093.75
2022-11-05T00:27:12.917Z,95092.94
2022-11-05T00:29:40.888Z,95094.94
2022-11-05T00:32:08.857Z,95099.31
2022-11-05T00:34:36.806Z,95103.34
2022-11-05T00:37:04.817Z,95102.53
2022-11-05T00:39:32.798Z,95112.72
2022-11-05T00:42:14.571Z,95106.53
2022-11-05T00:45:01.066Z,95113.31
2022-11-05T00:47:46.730Z,95109.72
2022-11-05T00:50:14.928Z,95116.50
2022-11-05T00:52:59.262Z,95119.25
2022-11-05T00:55:30.313Z,95122.47
2022-11-05T00:57:58.952Z,95123.66
2022-11-05T01:00:30.323Z,95120.47
2022-11-05T01:02:59.718Z,95127.25
2022-11-05T01:05:28.136Z,95131.66
2022-11-05T01:07:56.146Z,95127.66
2022-11-05T01:10:25.364Z,95131.84
2022-11-05T01:12:53.514Z,95122.06
2022-11-05T01:15:22.091Z,95130.88
2022-11-05T01:17:51.804Z,95124.25
2022-11-05T01:20:20.018Z,95125.25
2022-11-05T01:22:47.935Z,95128.69
2022-11-05T01:25:15.890Z,95137.28
2022-11-05T01:27:43.822Z,95140.50
2022-11-05T01:30:12.999Z,95135.72
2022-11-05T01:32:41.009Z,95134.94
2022-11-05T01:35:14.119Z,95123.34
2022-11-05T01:37:42.068Z,95129.31
2022-11-05T01:40:13.597Z,95129.31
2022-11-05T01:42:41.613Z,95138.53
2022-11-05T01:45:16.092Z,95148.13
2022-11-05T01:47:59.503Z,95136.53
2022-11-05T01:50:50.144Z,95141.75
2022-11-05T01:53:23.591Z,95145.72
2022-11-05T01:55:56.796Z,95150.72
2022-11-05T01:58:29.898Z,95152.13
2022-11-05T02:00:58.454Z,95153.13
2022-11-05T02:03:27.254Z,95157.72
2022-11-05T02:05:58.575Z,95166.91
2022-11-05T02:08:38.858Z,95168.91
2022-11-05T02:11:06.860Z,95158.09
2022-11-05T02:13:34.772Z,95164.09
2022-11-05T02:16:10.861Z,95162.09
2022-11-05T02:18:58.559Z,95170.06
2022-11-05T02:21:48.278Z,95174.44
2022-11-05T02:24:54.855Z,95168.47
2022-11-05T02:27:38.809Z,95176.84
2022-11-05T02:30:33.686Z,95180.03
2022-11-05T02:33:20.969Z,95178.84
2022-11-05T02:36:02.768Z,95188.03
2022-11-05T02:38:42.389Z,95180.81
2022-11-05T02:41:19.632Z,95186.00
2022-11-05T02:43:57.500Z,95188.03
2022-11-05T02:46:38.798Z,95193.22
2022-11-05T02:49:14.630Z,95196.81
2022-11-05T02:51:49.257Z,95202.22
2022-11-05T02:54:20.730Z,95201.25
2022-11-05T02:56:52.904Z,95210.22
2022-11-05T02:59:20.892Z,95211.22
2022-11-05T03:01:52.367Z,95224.63
2022-11-05T03:04:23.266Z,95230.00
2022-11-05T03:07:13.397Z,95234.59
2022-11-05T03:10:12.761Z,95234.78
2022-11-05T03:12:53.042Z,95231.75
2022-11-05T03:15:31.302Z,95242.13
2022-11-05T03:18:07.386Z,95244.34
2022-11-05T03:20:38.857Z,95239.97
2022-11-05T03:23:13.608Z,95249.00
2022-11-05T03:25:48.769Z,95253.56
2022-11-05T03:28:21.112Z,95256.19
2022-11-05T03:30:52.419Z,95255.56
2022-11-05T03:33:25.564Z,95253.78
2022-11-05T03:35:56.416Z,95250.38
2022-11-05T03:38:29.115Z,95255.59
2022-11-05T03:41:00.129Z,95251.56
2022-11-05T03:43:36.491Z,95261.97
2022-11-05T03:46:09.289Z,95257.97
2022-11-05T03:48:42.750Z,95263.19
2022-11-05T03:51:18.911Z,95261.97
2022-11-05T03:53:51.128Z,95261.78
2022-11-05T03:56:24.993Z,95260.78
2022-11-05T03:58:58.701Z,95268.38
2022-11-05T04:01:28.017Z,95263.97
2022-11-05T04:03:57.495Z,95267.56
2022-11-05T04:06:42.949Z,95269.16
2022-11-05T04:09:28.980Z,95261.19
2022-11-05T04:12:14.441Z,95267.56
2022-11-05T04:14:42.423Z,95273.56
2022-11-05T04:17:09.924Z,95279.75
2022-11-05T04:19:58.013Z,95276.75
2022-11-05T04:22:45.095Z,95271.56
2022-11-05T04:25:13.640Z,95270.72
2022-11-05T04:27:41.514Z,95264.75
2022-11-05T04:30:21.773Z,95256.78
2022-11-05T04:33:00.922Z,95264.38
2022-11-05T04:35:32.628Z,95266.78
2022-11-05T04:38:00.571Z,95273.97
2022-11-05T04:40:28.832Z,95277.16
2022-11-05T04:42:57.748Z,95275.56
2022-11-05T04:45:27.655Z,95281.94
2022-11-05T04:47:55.623Z,95282.50
2022-11-05T04:50:23.834Z,95283.09
2022-11-05T04:52:53.325Z,95293.06
2022-11-05T04:55:21.509Z,95295.44
2022-11-05T04:57:50.542Z,95296.69
2022-11-05T05:00:19.675Z,95297.53
2022-11-05T05:02:48.057Z,95295.94
2022-11-05T05:05:16.569Z,95303.53
2022-11-05T05:07:44.505Z,95297.94
2022-11-05T05:10:14.287Z,95302.13
2022-11-05T05:12:42.207Z,95305.75
2022-11-05T05:15:11.022Z,95313.53
2022-11-05T05:17:38.963Z,95316.31
2022-11-05T05:20:25.480Z,95310.31
2022-11-05T05:22:54.209Z,95316.75
2022-11-05T05:25:24.188Z,95313.16
2022-11-05T05:27:52.203Z,95323.53
2022-11-05T05:30:20.241Z,95319.94
2022-11-05T05:32:48.317Z,95328.75
2022-11-05T05:35:16.417Z,95333.13
2022-11-05T05:37:44.805Z,95326.72
2022-11-05T05:40:12.878Z,95334.13
2022-11-05T05:42:43.593Z,95336.72
2022-11-05T05:45:12.687Z,95336.31
2022-11-05T05:47:40.862Z,95330.31
2022-11-05T05:50:09.221Z,95336.50
2022-11-05T05:52:37.339Z,95340.31
2022-11-05T05:55:05.727Z,95349.50
2022-11-05T05:57:34.737Z,95342.91
2022-11-05T06:00:05.190Z,95351.91
2022-11-05T06:02:39.833Z,95341.09
2022-11-05T06:05:08.445Z,95346.94
2022-11-05T06:07:37.584Z,95334.53
2022-11-05T06:10:06.298Z,95340.72
2022-11-05T06:12:34.253Z,95345.94
2022-11-05T06:15:03.938Z,95344.94
2022-11-05T06:17:31.920Z,95340.31
2022-11-05T06:19:59.851Z,95343.13
2022-11-05T06:22:27.762Z,95338.72
2022-11-05T06:24:55.639Z,95342.72
2022-11-05T06:27:23.542Z,95347.91
2022-11-05T06:29:51.494Z,95345.09
2022-11-05T06:32:20.840Z,95344.31
2022-11-05T06:34:48.810Z,95343.09
2022-11-05T06:37:16.862Z,95345.91
2022-11-05T06:39:44.920Z,95356.28
2022-11-05T06:42:18.364Z,95351.09
2022-11-05T06:44:47.069Z,95347.50
2022-11-05T06:47:14.977Z,95355.91
2022-11-05T06:49:44.220Z,95354.31
2022-11-05T06:52:12.237Z,95358.91
2022-11-05T06:54:40.823Z,95361.50
2022-11-05T06:57:09.975Z,95367.09
2022-11-05T06:59:38.138Z,95372.63
2022-11-05T07:02:06.642Z,95368.19
2022-11-05T07:04:34.791Z,95372.63
2022-11-05T07:07:04.138Z,95379.81
2022-11-05T07:09:32.089Z,95383.81
2022-11-05T07:12:00.028Z,95382.97
2022-11-05T07:14:27.922Z,95387.38
2022-11-05T07:16:57.610Z,95390.63
2022-11-05T07:19:25.573Z,95397.03
2022-11-05T07:21:53.480Z,95393.25
2022-11-05T07:24:22.758Z,95395.88
2022-11-05T07:26:50.640Z,95399.09
2022-11-05T07:29:18.553Z,95401.09
2022-11-05T07:31:47.504Z,95407.13
2022-11-05T07:34:15.547Z,95415.13
2022-11-05T07:36:43.439Z,95414.13
2022-11-05T07:39:11.363Z,95408.72
2022-11-05T07:41:40.726Z,95413.94
2022-11-05T07:44:08.686Z,95414.75
2022-11-05T07:46:36.643Z,95413.16
2022-11-05T07:49:04.834Z,95416.34
2022-11-05T07:51:32.734Z,95424.16
2022-11-05T07:54:00.637Z,95429.97
2022-11-05T07:56:28.556Z,95432.75
2022-11-05T07:58:57.841Z,95432.34
2022-11-05T08:01:25.914Z,95437.94
2022-11-05T08:03:54.006Z,95447.38
2022-11-05T08:06:22.016Z,95447.75
2022-11-05T08:08:49.881Z,95443.09
2022-11-05T08:11:18.892Z,95445.03
2022-11-05T08:13:46.830Z,95443.84
2022-11-05T08:16:16.549Z,95447.88
2022-11-05T08:18:44.726Z,95456.31
2022-11-05T08:21:12.695Z,95452.72
2022-11-05T08:23:42.520Z,95464.56
2022-11-05T08:26:11.572Z,95455.97
2022-11-05T08:28:39.493Z,95469.16
2022-11-05T08:31:07.430Z,95464.78
2022-11-05T08:33:36.736Z,95461.97
2022-11-05T08:36:05.519Z,95468.38
2022-11-05T08:38:33.424Z,95473.16
2022-11-05T08:41:01.790Z,95469.19
2022-11-05T08:43:29.735Z,95472.97
2022-11-05T08:45:57.719Z,95464.34
2022-11-05T08:48:25.606Z,95469.56
2022-11-05T08:50:54.894Z,95466.50
2022-11-05T08:53:22.841Z,95467.13
2022-11-05T08:55:51.552Z,95471.53
2022-11-05T08:58:20.793Z,95470.69
2022-11-05T09:00:50.645Z,95473.06
2022-11-05T09:03:18.906Z,95465.88
2022-11-05T09:05:46.891Z,95472.25
2022-11-05T09:08:18.471Z,95466.81
2022-11-05T09:10:47.798Z,95470.03
2022-11-05T09:13:19.455Z,95463.81
2022-11-05T09:15:49.034Z,95465.78
2022-11-05T09:18:17.840Z,95458.91
2022-11-05T09:20:46.235Z,95459.69
2022-11-05T09:23:17.008Z,95454.81
2022-11-05T09:25:45.828Z,95451.56
2022-11-05T09:28:17.111Z,95455.59
2022-11-05T09:30:47.496Z,95451.94
2022-11-05T09:33:17.209Z,95453.16
2022-11-05T09:35:45.464Z,95459.38
2022-11-05T09:38:13.552Z,95459.25
2022-11-05T09:40:49.685Z,95460.50
2022-11-05T09:43:21.281Z,95467.63
2022-11-05T09:45:52.485Z,95456.63
2022-11-05T09:48:24.772Z,95465.06
2022-11-05T09:50:54.431Z,95465.81
2022-11-05T09:53:24.453Z,95465.81
2022-11-05T09:55:57.797Z,95468.22
2022-11-05T09:58:38.222Z,95479.41
2022-11-05T10:01:12.322Z,95474.63
2022-11-05T10:03:45.839Z,95470.25
2022-11-05T10:06:22.995Z,95470.41
2022-11-05T10:08:55.786Z,95475.75
2022-11-05T10:11:36.467Z,95478.53
2022-11-05T10:14:09.658Z,95473.69
2022-11-05T10:16:40.759Z,95478.03
2022-11-05T10:19:14.670Z,95481.16
2022-11-05T10:22:05.683Z,95474.25
2022-11-05T10:24:32.019Z,95479.53
2022-11-05T10:27:01.444Z,95480.09
2022-11-05T10:29:32.511Z,95481.28
2022-11-05T10:32:05.560Z,95476.34
2022-11-05T10:34:36.206Z,95477.38
2022-11-05T10:37:04.578Z,95468.47
2022-11-05T10:39:34.491Z,95466.34
2022-11-05T10:42:34.500Z,95461.97
2022-11-05T10:45:09.839Z,95469.69
2022-11-05T10:47:52.853Z,95468.22
2022-11-05T10:50:24.489Z,95469.47
2022-11-05T10:52:58.136Z,95474.41
2022-11-05T10:55:29.069Z,95465.34
2022-11-05T10:58:09.079Z,95473.06
2022-11-05T11:00:37.089Z,95458.25
2022-11-05T11:03:07.523Z,95464.84
2022-11-05T11:05:38.328Z,95458.09
2022-11-05T11:08:22.953Z,95459.25
2022-11-05T11:10:53.560Z,95464.19
2022-11-05T11:13:25.420Z,95461.34
2022-11-05T11:15:53.787Z,95459.22
2022-11-05T11:18:30.908Z,95458.25
2022-11-05T11:21:13.777Z,95452.13
2022-11-05T11:23:43.274Z,95449.50
2022-11-05T11:26:12.783Z,95439.66
2022-11-05T11:28:47.235Z,95431.97
2022-11-05T11:31:17.977Z,95429.72
2022-11-05T11:33:48.894Z,95420.50
2022-11-05T11:36:19.589Z,95407.34
2022-11-05T11:38:47.743Z,95413.59
2022-11-05T11:41:26.710Z,95414.53
2022-11-05T11:44:00.609Z,95415.91
2022-11-05T11:46:34.020Z,95422.75
2022-11-05T11:49:02.489Z,95419.84
2022-11-05T11:51:37.675Z,95416.06
2022-11-05T11:54:06.375Z,95416.84
2022-11-05T11:56:45.120Z,95430.00
2022-11-05T11:59:40.563Z,95433.56
2022-11-05T12:02:32.077Z,95430.34
2022-11-05T12:05:18.906Z,95438.34
2022-11-05T12:07:52.948Z,95433.78
2022-11-05T12:10:40.459Z,95434.34
2022-11-05T12:13:29.640Z,95427.09
2022-11-05T12:16:06.689Z,95429.88
2022-11-05T12:18:44.250Z,95441.34
2022-11-05T12:21:40.732Z,95443.06
2022-11-05T12:24:22.212Z,95436.88
2022-11-05T12:27:03.532Z,95432.69
2022-11-05T12:29:52.116Z,95434.53
2022-11-05T12:32:47.956Z,95439.50
2022-11-05T12:35:30.731Z,95447.50
2022-11-05T12:38:10.327Z,95435.75
2022-11-05T12:40:52.424Z,95433.75
2022-11-05T12:43:27.158Z,95430.84
2022-11-05T12:46:03.528Z,95433.97
2022-11-05T12:48:53.060Z,95427.53
2022-11-05T12:51:35.164Z,95423.91
2022-11-05T12:54:13.926Z,95427.22
2022-11-05T12:56:46.451Z,95433.31
2022-11-05T12:59:22.264Z,95434.91
2022-11-05T13:01:55.542Z,95441.84
2022-11-05T13:04:35.591Z,95435.44
2022-11-05T13:07:07.773Z,95448.72
2022-11-05T13:09:42.390Z,95444.28
2022-11-05T13:12:14.541Z,95445.53
2022-11-05T13:14:46.661Z,95439.50
2022-11-05T13:17:17.669Z,95436.13
2022-11-05T13:19:52.621Z,95431.09
2022-11-05T13:22:34.364Z,95430.66
2022-11-05T13:25:07.228Z,95438.22
2022-11-05T13:28:03.524Z,95433.31
2022-11-05T13:30:34.750Z,95430.84
2022-11-05T13:33:07.381Z,95432.25
2022-11-05T13:35:44.574Z,95432.63
2022-11-05T13:38:54.520Z,95424.34
2022-11-05T13:41:32.661Z,95430.13
2022-11-05T13:44:24.726Z,95428.84
2022-11-05T13:47:19.392Z,95420.84
2022-11-05T13:50:16.757Z,95408.94
2022-11-05T13:53:04.880Z,95405.16
2022-11-05T13:55:57.985Z,95407.28
2022-11-05T13:58:48.419Z,95398.22
2022-11-05T14:01:28.041Z,95396.63
2022-11-05T14:03:57.554Z,95397.47
2022-11-05T14:06:29.312Z,95406.91
2022-11-05T14:09:03.970Z,95402.53
2022-11-05T14:11:35.279Z,95398.59
2022-11-05T14:14:06.137Z,95404.25
2022-11-05T14:16:50.055Z,95400.31
2022-11-05T14:19:33.569Z,95397.88
2022-11-05T14:22:21.525Z,95407.06
2022-11-05T14:24:50.825Z,95407.06
2022-11-05T14:27:44.667Z,95415.34
2022-11-05T14:30:44.857Z,95411.25
2022-11-05T14:33:18.485Z,95416.78
2022-11-05T14:35:46.413Z,95424.91
2022-11-05T14:38:22.756Z,95419.09
2022-11-05T14:41:00.410Z,95413.81
2022-11-05T14:43:30.445Z,95415.19
2022-11-05T14:46:01.639Z,95398.34
2022-11-05T14:48:38.789Z,95398.91
2022-11-05T14:51:26.128Z,95391.22
2022-11-05T14:54:02.229Z,95392.03
2022-11-05T14:56:43.810Z,95402.47
2022-11-05T14:59:51.727Z,95409.91
2022-11-05T15:02:23.987Z,95406.03
2022-11-05T15:04:53.199Z,95416.47
2022-11-05T15:07:34.885Z,95418.00
2022-11-05T15:10:10.283Z,95435.09
2022-11-05T15:12:44.734Z,95429.63
2022-11-05T15:15:24.713Z,95422.31
2022-11-05T15:18:03.998Z,95425.06
2022-11-05T15:20:40.244Z,95419.13
2022-11-05T15:23:13.226Z,95417.53
2022-11-05T15:25:52.885Z,95426.72
2022-11-05T15:28:31.602Z,95420.53
2022-11-05T15:31:02.476Z,95412.38
2022-11-05T15:33:31.527Z,95406.19
2022-11-05T15:36:10.660Z,95413.84
2022-11-05T15:38:38.689Z,95407.53
2022-11-05T15:41:15.575Z,95413.56
2022-11-05T15:43:48.068Z,95412.75
2022-11-05T15:46:19.759Z,95419.09
2022-11-05T15:48:49.908Z,95417.16
2022-11-05T15:51:18.663Z,95423.00
2022-11-05T15:57:16.012Z,95422.59
2022-11-05T15:59:48.198Z,95420.28
2022-11-05T16:02:30.806Z,95427.69
2022-11-05T16:05:00.162Z,95430.59
2022-11-05T16:07:29.482Z,95437.56
2022-11-05T16:10:00.571Z,95440.84
2022-11-05T16:12:34.561Z,95438.09
2022-11-05T16:15:19.570Z,95436.69
2022-11-05T16:17:51.061Z,95434.94
2022-11-05T16:20:22.381Z,95426.69
2022-11-05T16:22:52.307Z,95434.44
2022-11-05T16:25:27.215Z,95429.78
2022-11-05T16:27:55.399Z,95426.06
2022-11-05T16:30:25.501Z,95424.06
2022-11-05T16:32:54.081Z,95422.03
2022-11-05T16:35:24.461Z,95429.44
2022-11-05T16:37:53.486Z,95427.84
2022-11-05T16:40:24.673Z,95419.66
2022-11-05T16:42:53.897Z,95425.31
2022-11-05T16:45:25.603Z,95426.59
2022-11-05T16:47:53.626Z,95442.25
2022-11-05T16:50:25.452Z,95439.84
2022-11-05T16:52:53.708Z,95442.63
2022-11-05T16:55:21.988Z,95445.06
2022-11-05T16:57:53.500Z,95449.09
2022-11-05T17:00:22.549Z,95443.88
2022-11-05T17:02:52.834Z,95442.72
2022-11-05T17:05:25.214Z,95449.16
2022-11-05T17:07:53.804Z,95454.47
2022-11-05T17:10:23.442Z,95449.25
2022-11-05T17:12:51.996Z,95451.63
2022-11-05T17:15:23.139Z,95460.50
2022-11-05T17:17:53.150Z,95458.31
2022-11-05T17:20:28.524Z,95458.97
2022-11-05T17:22:57.312Z,95460.16
2022-11-05T17:25:25.757Z,95452.97
2022-11-05T17:27:54.164Z,95470.56
2022-11-05T17:30:22.129Z,95471.81
2022-11-05T17:32:50.123Z,95468.66
2022-11-05T17:35:19.625Z,95470.63
2022-11-05T17:37:47.651Z,95469.00
2022-11-05T17:40:17.933Z,95456.19
2022-11-05T17:42:46.827Z,95467.81
2022-11-05T17:45:15.467Z,95460.63
2022-11-05T17:47:43.601Z,95457.81
2022-11-05T17:50:16.286Z,95467.47
2022-11-05T17:52:45.978Z,95471.47
2022-11-05T17:55:17.694Z,95473.91
2022-11-05T17:57:47.388Z,95476.31
2022-11-05T18:00:17.111Z,95469.09
2022-11-05T18:02:46.246Z,95473.47
2022-11-05T18:05:14.423Z,95473.91
2022-11-05T18:07:42.711Z,95473.06
2022-11-05T18:10:12.562Z,95467.47
2022-11-05T18:12:40.972Z,95463.44
2022-11-05T18:15:09.766Z,95463.03
2022-11-05T18:17:38.199Z,95461.44
2022-11-05T18:20:11.646Z,95463.44
2022-11-05T18:22:43.120Z,95463.88
2022-11-05T18:25:13.760Z,95467.06
2022-11-05T18:27:42.043Z,95456.25
2022-11-05T18:30:14.024Z,95457.25
2022-11-05T18:32:42.274Z,95457.06
2022-11-05T18:35:10.813Z,95463.13
2022-11-05T18:37:39.740Z,95461.34
2022-11-05T18:40:09.095Z,95475.16
2022-11-05T18:42:38.619Z,95474.38
2022-11-05T18:45:07.740Z,95478.56
2022-11-05T18:47:35.834Z,95484.19
2022-11-05T18:50:03.949Z,95478.78
2022-11-05T18:52:32.892Z,95492.78
2022-11-05T18:55:01.115Z,95484.78
2022-11-05T18:57:29.354Z,95483.19
2022-11-05T18:59:58.729Z,95487.97
2022-11-05T19:02:26.739Z,95484.78
2022-11-05T19:05:26.700Z,95485.19
2022-11-05T19:07:42.646Z,95483.59
2022-11-05T19:10:10.714Z,95489.97
2022-11-05T19:12:38.692Z,95485.38
2022-11-05T19:15:09.424Z,95480.97
2022-11-05T19:17:37.914Z,95491.19
2022-11-05T19:20:07.465Z,95493.56
2022-11-05T19:22:35.363Z,95494.81
2022-11-05T19:25:03.314Z,95490.41
2022-11-05T19:27:31.229Z,95490.38
2022-11-05T19:29:59.213Z,95493.97
2022-11-05T19:32:28.505Z,95491.38
2022-11-05T19:34:56.455Z,95484.38
2022-11-05T19:37:24.328Z,95498.00
2022-11-05T19:39:52.234Z,95496.78
2022-11-05T19:42:20.196Z,95496.00
2022-11-05T19:44:48.089Z,95488.00
2022-11-05T19:47:16.066Z,95494.00
2022-11-05T19:49:45.349Z,95496.38
2022-11-05T19:52:13.322Z,95495.19
2022-11-05T19:54:41.481Z,95502.38
2022-11-05T19:57:09.429Z,95498.78
2022-11-05T19:59:37.368Z,95496.19
2022-11-05T20:02:06.074Z,95511.19
2022-11-05T20:04:35.422Z,95513.13
2022-11-05T20:07:04.767Z,95515.13
2022-11-05T20:09:32.629Z,95500.50
2022-11-05T20:12:00.546Z,95508.91
2022-11-05T20:14:29.736Z,95506.38
2022-11-05T20:16:58.379Z,95507.78
2022-11-05T20:19:26.268Z,95497.50
2022-11-05T20:21:54.330Z,95493.91
2022-11-05T20:24:25.522Z,95495.13
2022-11-05T20:26:54.519Z,95509.50
2022-11-05T20:29:22.961Z,95505.91
2022-11-05T20:31:51.483Z,95489.72
2022-11-05T20:34:19.398Z,95485.09
2022-11-05T20:36:47.335Z,95486.31
2022-11-05T20:39:15.458Z,95485.50
2022-11-05T20:41:45.072Z,95492.47
2022-11-05T20:44:13.061Z,95493.88
2022-11-05T20:46:41.433Z,95495.84
2022-11-05T20:49:09.350Z,95500.66
2022-11-05T20:51:37.321Z,95502.66
2022-11-05T20:54:05.696Z,95502.31
2022-11-05T20:56:35.798Z,95503.09
2022-11-05T20:59:05.796Z,95505.06
2022-11-05T21:01:35.117Z,95513.25
2022-11-05T21:04:04.271Z,95524.78
2022-11-05T21:06:33.733Z,95529.34
2022-11-05T21:09:01.788Z,95530.16
2022-11-05T21:11:49.880Z,95534.56
2022-11-05T21:14:19.680Z,95536.56
2022-11-05T21:16:47.589Z,95540.56
2022-11-05T21:19:16.257Z,95547.28
2022-11-05T21:21:44.223Z,95543.69
2022-11-05T21:24:12.113Z,95547.34
2022-11-05T21:26:40.153Z,95539.63
2022-11-05T21:29:08.514Z,95534.63
2022-11-05T21:31:38.550Z,95540.97
2022-11-05T21:34:06.533Z,95538.34
2022-11-05T21:36:34.787Z,95530.94
2022-11-05T21:39:02.915Z,95538.34
2022-11-05T21:41:30.936Z,95546.75
2022-11-05T21:43:59.011Z,95544.94
2022-11-05T21:46:26.981Z,95544.13
2022-11-05T21:48:56.275Z,95547.88
2022-11-05T21:51:41.547Z,95551.72
2022-11-05T21:54:28.779Z,95553.31
2022-11-05T21:57:14.669Z,95542.13
2022-11-05T21:59:52.942Z,95555.22
2022-11-05T22:02:23.266Z,95553.00
2022-11-05T22:04:54.372Z,95564.28
2022-11-05T22:07:24.666Z,95552.75
2022-11-05T22:09:52.983Z,95554.81
2022-11-05T22:12:21.402Z,95546.84
2022-11-05T22:14:49.384Z,95549.25
2022-11-05T22:17:17.852Z,95553.63
2022-11-05T22:19:46.023Z,95552.03
2022-11-05T22:22:15.773Z,95560.00
2022-11-05T22:24:44.821Z,95558.78
2022-11-05T22:27:15.475Z,95551.63
2022-11-05T22:29:44.182Z,95538.66
2022-11-05T22:32:12.603Z,95533.66
2022-11-05T22:34:40.517Z,95520.47
2022-11-05T22:37:09.453Z,95502.91
2022-11-05T22:39:38.815Z,95494.50
2022-11-05T22:42:08.688Z,95479.91
2022-11-05T22:44:37.811Z,95474.75
2022-11-05T22:47:06.618Z,95461.34
2022-11-05T22:49:34.826Z,95467.00
2022-11-05T22:52:02.816Z,95470.94
2022-11-05T22:54:35.073Z,95465.13
2022-11-05T22:57:07.599Z,95474.81
2022-11-05T22:59:35.523Z,95469.00
2022-11-05T23:02:09.174Z,95471.13
2022-11-05T23:04:38.252Z,95475.38
2022-11-05T23:07:27.534Z,95488.09
2022-11-05T23:10:13.944Z,95481.94
2022-11-05T23:12:44.579Z,95476.75
2022-11-05T23:15:34.518Z,95478.41
2022-11-05T23:18:20.096Z,95474.81
2022-11-05T23:21:06.030Z,95468.03
2022-11-05T23:23:59.650Z,95460.06
2022-11-05T23:26:44.915Z,95458.88
2022-11-05T23:29:14.218Z,95456.06
2022-11-05T23:31:59.567Z,95446.06
2022-11-05T23:34:27.777Z,95453.28
2022-11-05T23:37:13.422Z,95459.84
2022-11-05T23:39:42.866Z,95462.31
2022-11-05T23:42:28.882Z,95465.91
2022-11-05T23:45:16.015Z,95479.09
2022-11-05T23:48:01.854Z,95485.41
2022-11-05T23:50:34.457Z,95493.66
2022-11-05T23:53:06.729Z,95480.94
2022-11-05T23:55:34.843Z,95486.56
2022-11-05T23:58:02.753Z,95477.03
